createdAt,value
2022-08-26T00:03:46.684Z,7.40
2022-08-26T00:08:48.637Z,6.10
2022-08-26T00:13:50.663Z,7.20
2022-08-26T00:19:11.094Z,8.70
2022-08-26T00:24:13.453Z,8.70
2022-08-26T00:29:15.914Z,7.60
2022-08-26T00:34:19.386Z,8.20
2022-08-26T00:39:22.351Z,7.80
2022-08-26T00:44:24.718Z,7.00
2022-08-26T00:49:47.906Z,7.30
2022-08-26T00:55:20.139Z,7.10
2022-08-26T01:00:25.935Z,7.00
2022-08-26T01:05:28.884Z,6.30
2022-08-26T01:10:32.590Z,5.40
2022-08-26T01:15:41.837Z,4.50
2022-08-26T01:21:06.420Z,4.70
2022-08-26T01:26:23.115Z,4.30
2022-08-26T01:31:29.920Z,7.10
2022-08-26T01:36:32.185Z,6.50
2022-08-26T01:41:36.151Z,4.90
2022-08-26T01:46:38.246Z,3.20
2022-08-26T01:51:43.925Z,2.80
2022-08-26T01:56:47.049Z,2.40
2022-08-26T02:01:50.151Z,2.30
2022-08-26T02:06:56.542Z,3.00
2022-08-26T02:12:01.665Z,3.50
2022-08-26T02:17:04.391Z,4.20
2022-08-26T02:22:15.792Z,3.00
2022-08-26T02:27:24.650Z,5.80
2022-08-26T02:32:27.123Z,6.00
2022-08-26T02:37:31.096Z,6.70
2022-08-26T02:42:33.238Z,5.30
2022-08-26T02:47:35.422Z,5.10
2022-08-26T02:52:37.415Z,5.10
2022-08-26T02:57:39.969Z,6.50
2022-08-26T03:02:42.029Z,8.30
2022-08-26T03:07:44.312Z,6.40
2022-08-26T03:12:48.259Z,5.40
2022-08-26T03:17:50.513Z,4.70
2022-08-26T03:22:53.211Z,6.20
2022-08-26T03:27:59.532Z,7.80
2022-08-26T03:33:02.453Z,7.60
2022-08-26T03:38:06.792Z,11.90
2022-08-26T03:43:10.260Z,7.50
2022-08-26T03:48:12.687Z,7.30
2022-08-26T03:53:14.775Z,6.50
2022-08-26T03:58:16.772Z,5.80
2022-08-26T04:03:41.459Z,5.10
2022-08-26T04:08:44.784Z,5.80
2022-08-26T04:13:47.207Z,4.80
2022-08-26T04:18:49.759Z,4.80
2022-08-26T04:23:52.043Z,5.20
2022-08-26T04:28:55.237Z,5.10
2022-08-26T04:33:57.245Z,4.70
2022-08-26T04:39:02.329Z,4.40
2022-08-26T04:44:06.022Z,4.10
2022-08-26T04:49:09.309Z,3.90
2022-08-26T04:54:13.805Z,4.70
2022-08-26T04:59:18.781Z,6.60
2022-08-26T05:04:21.482Z,5.60
2022-08-26T05:09:25.125Z,7.40
2022-08-26T05:14:27.665Z,6.20
2022-08-26T05:19:30.531Z,10.10
2022-08-26T05:24:32.662Z,8.60
2022-08-26T05:29:35.389Z,9.80
2022-08-26T05:34:37.737Z,9.50
2022-08-26T05:39:41.254Z,10.70
2022-08-26T05:44:55.619Z,9.90
2022-08-26T05:49:58.682Z,10.20
2022-08-26T05:55:01.960Z,10.10
2022-08-26T06:00:04.740Z,9.20
2022-08-26T06:05:27.858Z,10.60
2022-08-26T06:10:33.020Z,10.30
2022-08-26T06:15:43.492Z,9.80
2022-08-26T06:20:54.571Z,10.20
2022-08-26T06:26:00.505Z,10.10
2022-08-26T06:31:02.708Z,7.90
2022-08-26T06:36:05.001Z,8.30
2022-08-26T06:41:11.557Z,8.80
2022-08-26T06:46:16.861Z,8.90
2022-08-26T06:51:22.437Z,8.90
2022-08-26T06:56:32.885Z,8.60
2022-08-26T07:01:44.207Z,8.00
2022-08-26T07:06:53.902Z,9.00
2022-08-26T07:12:00.331Z,8.00
2022-08-26T07:17:04.137Z,8.50
2022-08-26T07:22:08.670Z,8.50
2022-08-26T07:27:19.340Z,8.40
2022-08-26T07:32:23.982Z,7.50
2022-08-26T07:37:26.869Z,9.50
2022-08-26T07:42:34.043Z,7.60
2022-08-26T07:47:40.096Z,8.00
2022-08-26T07:52:43.137Z,8.50
2022-08-26T07:57:46.531Z,9.10
2022-08-26T08:02:53.332Z,8.80
2022-08-26T08:08:00.853Z,9.60
2022-08-26T08:13:22.922Z,8.40
2022-08-26T08:18:28.753Z,8.50
2022-08-26T08:23:33.838Z,8.90
2022-08-26T08:28:39.562Z,10.20
2022-08-26T08:33:47.165Z,9.30
2022-08-26T08:38:51.058Z,7.60
2022-08-26T08:43:53.921Z,7.80
2022-08-26T08:48:59.929Z,7.40
2022-08-26T08:54:04.514Z,7.40
2022-08-26T08:59:28.565Z,7.70
2022-08-26T09:04:56.347Z,7.20
2022-08-26T09:10:18.281Z,5.10
2022-08-26T09:15:40.107Z,6.60
2022-08-26T09:20:56.705Z,5.60
2022-08-26T09:26:03.812Z,5.80
2022-08-26T09:31:29.997Z,5.10
2022-08-26T09:36:41.164Z,4.90
2022-08-26T09:41:43.488Z,5.30
2022-08-26T09:46:57.267Z,4.80
2022-08-26T09:52:07.078Z,5.10
2022-08-26T09:57:16.424Z,5.50
2022-08-26T10:02:34.474Z,5.30
2022-08-26T10:07:44.563Z,5.30
2022-08-26T10:13:11.216Z,4.80
2022-08-26T10:18:24.221Z,4.80
2022-08-26T10:23:30.895Z,4.50
2022-08-26T10:28:46.133Z,4.40
2022-08-26T10:33:49.997Z,4.90
2022-08-26T10:38:52.774Z,4.30
2022-08-26T10:43:59.625Z,4.30
2022-08-26T10:49:06.857Z,3.50
2022-08-26T10:54:38.529Z,4.10
2022-08-26T10:59:58.926Z,3.80
2022-08-26T11:05:04.037Z,4.20
2022-08-26T11:10:21.215Z,3.80
2022-08-26T11:15:26.778Z,4.30
2022-08-26T11:20:34.664Z,3.20
2022-08-26T11:25:56.253Z,3.30
2022-08-26T11:30:59.666Z,3.70
2022-08-26T11:36:11.522Z,4.30
2022-08-26T11:41:19.474Z,3.50
2022-08-26T11:46:35.231Z,3.60
2022-08-26T11:51:41.905Z,3.20
2022-08-26T11:56:49.016Z,3.30
2022-08-26T12:01:56.051Z,2.90
2022-08-26T12:07:00.515Z,3.50
2022-08-26T12:12:13.641Z,3.70
2022-08-26T12:17:26.811Z,3.00
2022-08-26T12:22:35.590Z,3.30
2022-08-26T12:27:41.524Z,3.40
2022-08-26T12:32:52.830Z,2.80
2022-08-26T12:38:01.910Z,3.60
2022-08-26T12:43:05.544Z,3.90
2022-08-26T12:48:10.367Z,2.80
2022-08-26T12:53:24.765Z,3.20
2022-08-26T12:58:36.162Z,2.80
2022-08-26T13:03:46.632Z,2.30
2022-08-26T13:08:53.434Z,3.80
2022-08-26T13:14:02.425Z,3.10
2022-08-26T13:19:21.632Z,3.10
2022-08-26T13:24:40.504Z,3.00
2022-08-26T13:29:42.584Z,3.20
2022-08-26T13:34:57.638Z,3.20
2022-08-26T13:40:04.345Z,2.60
2022-08-26T13:45:06.791Z,3.10
2022-08-26T13:50:08.958Z,3.30
2022-08-26T13:55:14.711Z,3.40
2022-08-26T14:00:18.270Z,4.00
2022-08-26T14:05:22.767Z,2.90
2022-08-26T14:10:25.398Z,3.30
2022-08-26T14:15:27.817Z,2.90
2022-08-26T14:20:33.262Z,3.00
2022-08-26T14:25:35.333Z,3.30
2022-08-26T14:30:40.570Z,4.00
2022-08-26T14:35:48.879Z,4.70
2022-08-26T14:40:52.573Z,2.70
2022-08-26T14:45:54.888Z,3.00
2022-08-26T14:51:00.241Z,2.90
2022-08-26T14:56:05.271Z,2.80
2022-08-26T15:01:15.858Z,2.50
2022-08-26T15:06:29.060Z,3.30
2022-08-26T15:11:31.167Z,4.10
2022-08-26T15:16:36.832Z,2.80
2022-08-26T15:21:39.184Z,3.50
2022-08-26T15:26:41.400Z,3.40
2022-08-26T15:31:48.472Z,2.60
2022-08-26T15:36:54.598Z,2.60
2022-08-26T15:41:59.256Z,2.60
2022-08-26T15:47:01.246Z,3.00
2022-08-26T15:52:05.467Z,3.10
2022-08-26T15:57:19.767Z,3.40
2022-08-26T16:02:31.799Z,2.30
2022-08-26T16:07:40.198Z,3.30
2022-08-26T16:12:42.881Z,3.40
2022-08-26T16:17:48.662Z,3.20
2022-08-26T16:22:52.078Z,3.10
2022-08-26T16:27:59.718Z,2.70
2022-08-26T16:33:08.329Z,3.00
2022-08-26T16:38:15.333Z,2.30
2022-08-26T16:43:43.991Z,2.70
2022-08-26T16:48:48.048Z,2.90
2022-08-26T16:54:01.656Z,3.60
2022-08-26T16:59:16.757Z,2.50
2022-08-26T17:04:23.980Z,2.60
2022-08-26T17:09:32.188Z,2.80
2022-08-26T17:14:34.924Z,4.10
2022-08-26T17:19:46.748Z,2.90
2022-08-26T17:24:58.947Z,3.10
2022-08-26T17:30:01.505Z,3.20
2022-08-26T17:35:04.931Z,3.70
2022-08-26T17:40:12.103Z,2.70
2022-08-26T17:45:14.659Z,2.50
2022-08-26T17:50:17.928Z,3.50
2022-08-26T17:55:20.069Z,3.10
2022-08-26T18:00:26.061Z,2.90
2022-08-26T18:05:29.411Z,3.10
2022-08-26T18:10:31.303Z,3.90
2022-08-26T18:15:33.471Z,2.70
2022-08-26T18:20:39.980Z,3.10
2022-08-26T18:25:43.727Z,5.00
2022-08-26T18:30:47.607Z,5.00
2022-08-26T18:35:49.467Z,4.30
2022-08-26T18:46:08.483Z,4.30
2022-08-26T18:51:19.112Z,3.50
2022-08-26T18:56:21.677Z,3.80
2022-08-26T19:01:27.352Z,4.10
2022-08-26T19:06:32.847Z,3.30
2022-08-26T19:11:37.202Z,5.00
2022-08-26T19:16:43.155Z,3.10
2022-08-26T19:21:48.639Z,3.60
2022-08-26T19:26:59.435Z,3.70
2022-08-26T19:32:02.996Z,3.50
2022-08-26T19:37:05.600Z,3.30
2022-08-26T19:42:21.300Z,3.50
2022-08-26T19:47:23.979Z,5.00
2022-08-26T19:52:30.157Z,15.10
2022-08-26T19:57:34.030Z,5.10
2022-08-26T20:02:36.750Z,4.00
2022-08-26T20:07:39.001Z,4.40
2022-08-26T20:12:41.949Z,4.90
2022-08-26T20:17:44.464Z,4.20
2022-08-26T20:22:46.947Z,4.20
2022-08-26T20:27:50.792Z,5.40
2022-08-26T20:32:53.149Z,3.70
2022-08-26T20:42:57.420Z,3.80
2022-08-26T20:47:59.759Z,3.70
2022-08-26T20:58:04.734Z,3.80
2022-08-26T21:03:07.440Z,4.20
2022-08-26T21:08:09.780Z,3.90
2022-08-26T21:13:14.270Z,4.70
2022-08-26T21:23:21.191Z,7.50
2022-08-26T21:28:24.250Z,6.70
2022-08-26T21:33:28.337Z,5.70
2022-08-26T21:38:36.347Z,6.30
2022-08-26T21:43:43.198Z,4.70
2022-08-26T21:48:51.207Z,5.80
2022-08-26T21:53:56.512Z,27.00
2022-08-26T21:59:00.216Z,4.30
2022-08-26T22:04:08.432Z,4.20
2022-08-26T22:09:11.835Z,5.80
2022-08-26T22:14:15.588Z,5.10
2022-08-26T22:19:26.186Z,5.40
2022-08-26T22:24:40.313Z,5.40
2022-08-26T22:29:50.625Z,5.20
2022-08-26T22:34:55.803Z,4.20
2022-08-26T22:40:08.260Z,4.10
2022-08-26T22:45:14.065Z,4.50
2022-08-26T22:50:25.611Z,4.40
2022-08-26T22:55:27.516Z,5.20
2022-08-26T23:00:34.156Z,6.50
2022-08-26T23:05:38.337Z,5.50
2022-08-26T23:10:46.290Z,6.50
2022-08-26T23:15:48.499Z,5.30
2022-08-26T23:20:51.527Z,5.30
2022-08-26T23:25:54.702Z,4.30
2022-08-26T23:30:57.737Z,4.90
2022-08-26T23:36:06.770Z,3.90
2022-08-26T23:41:11.508Z,4.40
2022-08-26T23:46:15.021Z,4.90
2022-08-26T23:57:03.464Z,4.10
